Gallaway, Tennessee
Current Conditions -  °F | °C
As of 9:55 AM on Sunday 25 Jan 2015 (Local Time) from KNQA Reporting Station
Overcast Overcast  
Wind Chill: 44°   Ceiling: 10000
Heat Index: 48°   Visibility: 10mi
Dew Point: 37°   Wind: 10mph
Humidity: 66%   Direction: 200°SSW
Pressure: 29.73"   Gusts: NA
Location:  35.33°N, 89.62°W
Report Text: KNQA 251555Z 20009KT 10SM FEW055 SCT085 OVC100 09/03 A2973
Loading
Personal Weather Stations






























Interactive Weather Map New forecast layout! Learn more

10-Day Weather Forecast

Advertisements
Track Severe Weather on mobile